createdAt,value
2023-05-19T00:00:06.720Z,8.72
2023-05-19T00:01:06.902Z,8.639999
2023-05-19T00:02:07.074Z,8.72
2023-05-19T00:03:07.216Z,8.88
2023-05-19T00:04:07.352Z,9.12
2023-05-19T00:05:07.478Z,9.36
2023-05-19T00:06:07.644Z,9.28
2023-05-19T00:07:07.731Z,9.12
2023-05-19T00:08:07.895Z,8.88
2023-05-19T00:09:08.035Z,8.8
2023-05-19T00:10:08.158Z,8.72
2023-05-19T00:11:08.305Z,8.72
2023-05-19T00:12:08.393Z,8.639999
2023-05-19T00:13:08.562Z,8.639999
2023-05-19T00:14:08.650Z,8.639999
2023-05-19T00:15:08.802Z,8.72
2023-05-19T00:16:09.028Z,8.639999
2023-05-19T00:18:09.881Z,8.639999
2023-05-19T00:19:09.403Z,8.639999
2023-05-19T00:20:09.505Z,8.48
2023-05-19T00:21:09.648Z,8.4
2023-05-19T00:22:09.796Z,8.4
2023-05-19T00:23:09.917Z,8.32
2023-05-19T00:24:10.008Z,8.4
2023-05-19T00:25:10.159Z,8.32
2023-05-19T00:26:10.308Z,8.24
2023-05-19T00:27:10.464Z,8.32
2023-05-19T00:28:10.622Z,8.4
2023-05-19T00:29:10.770Z,8.639999
2023-05-19T00:30:10.926Z,8.639999
2023-05-19T00:31:11.086Z,8.639999
2023-05-19T00:32:11.256Z,8.32
2023-05-19T00:33:11.409Z,8
2023-05-19T00:34:11.524Z,8.08
2023-05-19T00:35:11.677Z,8.32
2023-05-19T00:36:11.850Z,8.24
2023-05-19T00:37:11.993Z,8.32
2023-05-19T00:38:12.145Z,8.4
2023-05-19T00:39:12.292Z,8.08
2023-05-19T00:40:12.438Z,7.92
2023-05-19T00:41:12.590Z,7.92
2023-05-19T00:42:12.741Z,7.92
2023-05-19T00:43:12.898Z,8
2023-05-19T00:44:13.048Z,8.24
2023-05-19T00:45:13.202Z,8.24
2023-05-19T00:46:13.419Z,8.08
2023-05-19T00:47:13.450Z,8
2023-05-19T00:48:13.612Z,8
2023-05-19T00:49:13.753Z,8.24
2023-05-19T00:50:13.910Z,8.08
2023-05-19T00:51:14.070Z,8
2023-05-19T00:52:14.217Z,8.08
2023-05-19T00:53:14.356Z,8.24
2023-05-19T00:54:14.514Z,8.08
2023-05-19T00:55:14.672Z,8
2023-05-19T00:56:14.816Z,8
2023-05-19T00:57:14.966Z,8.24
2023-05-19T00:58:15.127Z,8.08
2023-05-19T00:59:15.598Z,8
2023-05-19T01:00:15.330Z,8.24
2023-05-19T01:01:15.458Z,8.08
2023-05-19T01:02:15.520Z,7.84
2023-05-19T01:03:15.755Z,8
2023-05-19T01:04:15.827Z,7.92
2023-05-19T01:05:15.984Z,7.92
2023-05-19T01:06:16.130Z,8.08
2023-05-19T01:07:16.231Z,8.24
2023-05-19T01:08:16.388Z,8.32
2023-05-19T01:09:16.539Z,8.4
2023-05-19T01:10:16.690Z,8.4
2023-05-19T01:11:16.838Z,8.24
2023-05-19T01:12:16.988Z,8.32
2023-05-19T01:13:17.140Z,8.4
2023-05-19T01:14:17.309Z,8.4
2023-05-19T01:15:17.457Z,8.48
2023-05-19T01:16:17.579Z,8.4
2023-05-19T01:17:17.702Z,8.4
2023-05-19T01:18:17.799Z,8.4
2023-05-19T01:19:17.961Z,8.24
2023-05-19T01:20:18.070Z,8.24
2023-05-19T01:21:18.274Z,8.24
2023-05-19T01:22:18.357Z,8.08
2023-05-19T01:23:18.512Z,8.08
2023-05-19T01:24:18.611Z,8.24
2023-05-19T01:25:18.762Z,8.08
2023-05-19T01:26:18.923Z,8.08
2023-05-19T01:27:19.066Z,8.24
2023-05-19T01:28:19.216Z,8.32
2023-05-19T01:29:19.366Z,8.32
2023-05-19T01:30:19.518Z,8.32
2023-05-19T01:31:19.661Z,8.32
2023-05-19T01:32:19.733Z,8.24
2023-05-19T01:33:19.878Z,8.08
2023-05-19T01:34:20.041Z,8.08
2023-05-19T01:35:20.185Z,8
2023-05-19T01:36:20.284Z,8
2023-05-19T01:37:20.435Z,8
2023-05-19T01:38:20.554Z,8
2023-05-19T01:39:20.689Z,8
2023-05-19T01:40:20.840Z,8.24
2023-05-19T01:41:20.944Z,8
2023-05-19T01:42:21.048Z,8
2023-05-19T01:43:21.203Z,8.08
2023-05-19T01:44:21.347Z,8.08
2023-05-19T01:45:21.452Z,8.24
2023-05-19T01:46:21.632Z,8.24
2023-05-19T01:47:21.709Z,8.24
2023-05-19T01:48:21.865Z,8.24
2023-05-19T01:49:22.035Z,8
2023-05-19T01:50:22.120Z,8
2023-05-19T01:51:22.290Z,8.32
2023-05-19T01:52:22.407Z,8.32
2023-05-19T01:53:22.577Z,8.24
2023-05-19T01:54:22.723Z,8
2023-05-19T01:55:22.867Z,7.92
2023-05-19T01:56:23.059Z,8
2023-05-19T01:57:23.174Z,8
2023-05-19T01:58:23.316Z,8
2023-05-19T01:59:23.516Z,8.24
2023-05-19T02:00:23.599Z,8.32
2023-05-19T02:01:23.805Z,8.32
2023-05-19T02:02:23.953Z,8.32
2023-05-19T02:03:24.045Z,8.4
2023-05-19T02:04:24.201Z,8.8
2023-05-19T02:05:24.289Z,9.04
2023-05-19T02:06:24.396Z,8.8
2023-05-19T02:07:24.492Z,8.88
2023-05-19T02:08:24.661Z,9.04
2023-05-19T02:09:24.795Z,9.04
2023-05-19T02:10:24.914Z,9.04
2023-05-19T02:11:25.047Z,9.04
2023-05-19T02:12:25.199Z,9.12
2023-05-19T02:13:25.347Z,9.2
2023-05-19T02:14:25.513Z,9.36
2023-05-19T02:15:25.613Z,9.2
2023-05-19T02:16:25.767Z,8.88
2023-05-19T02:17:25.871Z,8.88
2023-05-19T02:18:26.026Z,8.48
2023-05-19T02:19:26.224Z,8.4
2023-05-19T02:20:26.290Z,8.32
2023-05-19T02:21:26.408Z,8.32
2023-05-19T02:22:26.513Z,8.72
2023-05-19T02:23:26.662Z,8.88
2023-05-19T02:24:26.767Z,8.72
2023-05-19T02:25:26.915Z,8.4
2023-05-19T02:26:27.058Z,8.32
2023-05-19T02:27:27.214Z,8.08
2023-05-19T02:28:27.369Z,8.08
2023-05-19T02:29:27.517Z,8.24
2023-05-19T02:30:27.656Z,8.08
2023-05-19T02:31:27.818Z,7.92
2023-05-19T02:32:27.947Z,7.92
2023-05-19T02:33:28.127Z,7.84
2023-05-19T02:34:28.220Z,7.84
2023-05-19T02:35:28.325Z,7.84
2023-05-19T02:36:28.445Z,7.68
2023-05-19T02:37:28.692Z,7.84
2023-05-19T02:38:28.687Z,7.68
2023-05-19T02:39:28.856Z,7.84
2023-05-19T02:40:28.998Z,7.84
2023-05-19T02:41:29.140Z,7.84
2023-05-19T02:42:29.292Z,7.84
2023-05-19T02:43:29.454Z,7.68
2023-05-19T02:44:29.541Z,7.68
2023-05-19T02:45:29.694Z,7.6
2023-05-19T02:46:29.877Z,7.6
2023-05-19T02:47:29.977Z,7.52
2023-05-19T02:48:30.094Z,7.52
2023-05-19T02:49:30.269Z,7.44
2023-05-19T02:50:30.530Z,7.6
2023-05-19T02:51:30.527Z,7.84
2023-05-19T02:52:30.662Z,7.6
2023-05-19T02:53:30.763Z,7.52
2023-05-19T02:54:30.911Z,7.68
2023-05-19T02:55:31.057Z,7.68
2023-05-19T02:56:31.198Z,7.6
2023-05-19T02:57:31.361Z,7.92
2023-05-19T02:58:31.470Z,7.68
2023-05-19T02:59:31.657Z,7.44
2023-05-19T03:00:31.864Z,7.52
2023-05-19T03:01:31.922Z,7.6
2023-05-19T03:02:32.044Z,7.68
2023-05-19T03:03:32.173Z,7.84
2023-05-19T03:04:32.260Z,7.52
2023-05-19T03:05:32.408Z,7.84
2023-05-19T03:06:32.531Z,7.68
2023-05-19T03:07:32.687Z,7.2
2023-05-19T03:08:32.780Z,7.04
2023-05-19T03:09:32.942Z,7.2
2023-05-19T03:10:33.178Z,7.2
2023-05-19T03:11:33.193Z,7.2
2023-05-19T03:12:33.337Z,7.28
2023-05-19T03:13:33.515Z,7.12
2023-05-19T03:14:33.651Z,7.2
2023-05-19T03:15:33.750Z,7.12
2023-05-19T03:16:33.898Z,6.72
2023-05-19T03:17:34.038Z,6.48
2023-05-19T03:18:34.122Z,6.4
2023-05-19T03:19:34.267Z,6.4
2023-05-19T03:20:34.538Z,6.32
2023-05-19T03:21:34.555Z,6.08
2023-05-19T03:22:34.725Z,6.24
2023-05-19T03:23:34.860Z,6.48
2023-05-19T03:24:35.011Z,6.48
2023-05-19T03:25:35.160Z,6.4
2023-05-19T03:26:35.340Z,6.32
2023-05-19T03:27:35.473Z,6.32
2023-05-19T03:28:35.637Z,6.48
2023-05-19T03:29:35.790Z,6.24
2023-05-19T03:30:35.979Z,6.24
2023-05-19T03:31:36.075Z,6.24
2023-05-19T03:32:36.312Z,6.32
2023-05-19T03:33:36.406Z,6.24
2023-05-19T03:34:36.562Z,6.08
2023-05-19T03:35:36.683Z,6
2023-05-19T03:36:36.831Z,5.92
2023-05-19T03:37:36.995Z,5.84
2023-05-19T03:38:37.142Z,5.92
2023-05-19T03:39:37.262Z,6
2023-05-19T03:40:37.398Z,5.92
2023-05-19T03:41:37.549Z,6
2023-05-19T03:42:37.696Z,5.84
2023-05-19T03:43:37.867Z,5.68
2023-05-19T03:44:37.963Z,5.84
2023-05-19T03:45:38.137Z,6.08
2023-05-19T03:46:38.216Z,6.48
2023-05-19T03:47:38.376Z,6.32
2023-05-19T03:48:38.511Z,5.92
2023-05-19T03:49:38.659Z,6
2023-05-19T03:50:38.884Z,5.92
2023-05-19T03:51:38.942Z,5.92
2023-05-19T03:52:39.062Z,5.92
2023-05-19T03:53:39.215Z,5.84
2023-05-19T03:54:39.367Z,6
2023-05-19T03:55:39.513Z,6.32
2023-05-19T03:56:39.623Z,6.32
2023-05-19T03:57:39.775Z,6
2023-05-19T03:58:39.939Z,5.84
2023-05-19T03:59:40.083Z,5.84
2023-05-19T04:00:40.220Z,6.24
2023-05-19T04:01:40.327Z,6.32
2023-05-19T04:02:40.463Z,6.24
2023-05-19T04:03:40.645Z,6.24
2023-05-19T04:04:40.772Z,6.4
2023-05-19T04:05:40.901Z,6.4
2023-05-19T04:06:41.033Z,6.48
2023-05-19T04:07:41.158Z,6.48
2023-05-19T04:08:41.294Z,6.72
2023-05-19T04:09:41.501Z,6.88
2023-05-19T04:10:41.591Z,7.04
2023-05-19T04:11:41.760Z,7.12
2023-05-19T04:12:41.903Z,7.04
2023-05-19T04:13:42.066Z,6.88
2023-05-19T04:14:42.202Z,7.04
2023-05-19T04:15:42.341Z,6.8
2023-05-19T04:16:42.451Z,7.04
2023-05-19T04:17:42.631Z,7.2
2023-05-19T04:18:42.769Z,7.28
2023-05-19T04:19:42.852Z,7.44
2023-05-19T04:20:43.021Z,7.44
2023-05-19T04:21:43.156Z,7.52
2023-05-19T04:22:43.325Z,7.52
2023-05-19T04:23:43.743Z,7.68
2023-05-19T04:24:43.986Z,7.84
2023-05-19T04:25:44.043Z,7.92
2023-05-19T04:26:43.817Z,8.08
2023-05-19T04:27:43.966Z,8.24
2023-05-19T04:28:44.107Z,8.24
2023-05-19T04:29:44.225Z,8.4
2023-05-19T04:30:44.374Z,8.48
2023-05-19T04:31:44.571Z,8.639999
2023-05-19T04:32:44.754Z,8.639999
2023-05-19T04:33:44.829Z,8.639999
2023-05-19T04:34:45.377Z,9.04
2023-05-19T04:35:45.516Z,9.04
2023-05-19T04:36:45.698Z,9.12
2023-05-19T04:37:45.850Z,9.12
2023-05-19T04:38:45.619Z,9.12
2023-05-19T04:39:45.756Z,9.2
2023-05-19T04:40:45.847Z,9.28
2023-05-19T04:41:45.992Z,9.52
2023-05-19T04:42:46.470Z,9.52
2023-05-19T04:43:46.550Z,9.52
2023-05-19T04:44:46.577Z,9.84
2023-05-19T04:46:47.156Z,10.24
2023-05-19T04:47:47.204Z,10.48
2023-05-19T04:48:47.273Z,10.48
2023-05-19T04:49:47.134Z,10.48
2023-05-19T04:50:47.255Z,10.48
2023-05-19T04:51:47.405Z,10.88
2023-05-19T04:52:47.565Z,10.639999
2023-05-19T04:53:48.086Z,10.48
2023-05-19T04:54:48.227Z,10.32
2023-05-19T04:55:48.284Z,10.4
2023-05-19T04:56:48.407Z,10.639999
2023-05-19T04:57:48.568Z,10.4
2023-05-19T04:58:48.689Z,10.08
2023-05-19T04:59:48.704Z,10.32
2023-05-19T05:00:48.992Z,10.24
2023-05-19T05:01:49.172Z,10.48
2023-05-19T05:02:49.456Z,10.48
2023-05-19T05:03:49.514Z,10.4
2023-05-19T05:04:49.274Z,10.32
2023-05-19T05:05:49.429Z,10.48
2023-05-19T05:06:49.898Z,10.639999
2023-05-19T05:07:49.986Z,10.24
2023-05-19T05:08:50.212Z,10.32
2023-05-19T05:09:50.001Z,10.08
2023-05-19T05:10:50.089Z,10.08
2023-05-19T05:11:50.481Z,10.08
2023-05-19T05:12:50.390Z,10.08
2023-05-19T05:13:50.553Z,10.24
2023-05-19T05:14:50.686Z,10.32
2023-05-19T05:15:50.808Z,10.32
2023-05-19T05:16:51.026Z,10.32
2023-05-19T05:17:51.120Z,10.4
2023-05-19T05:18:51.253Z,10.32
2023-05-19T05:19:51.346Z,10.719999
2023-05-19T05:20:51.506Z,10.48
2023-05-19T05:21:52.272Z,10.4
2023-05-19T05:22:51.808Z,10.639999
2023-05-19T05:23:51.983Z,10.48
2023-05-19T05:24:52.076Z,10.48
2023-05-19T05:25:52.205Z,10.48
2023-05-19T05:26:52.319Z,10.24
2023-05-19T05:27:52.463Z,10.32
2023-05-19T05:28:52.575Z,10.24
2023-05-19T05:29:52.719Z,10.32
2023-05-19T05:30:52.875Z,10.4
2023-05-19T05:31:53.024Z,10.48
2023-05-19T05:32:53.343Z,10.639999
2023-05-19T05:33:53.321Z,10.639999
2023-05-19T05:34:53.509Z,10.639999
2023-05-19T05:35:53.623Z,10.48
2023-05-19T05:36:53.782Z,10.639999
2023-05-19T05:37:53.934Z,10.8
2023-05-19T05:38:54.082Z,11.04
2023-05-19T05:39:54.236Z,11.12
2023-05-19T05:40:54.335Z,11.44
2023-05-19T05:41:54.488Z,11.28
2023-05-19T05:42:54.648Z,11.28
2023-05-19T05:43:54.788Z,11.44
2023-05-19T05:44:54.936Z,11.44
2023-05-19T05:45:55.063Z,11.679999
2023-05-19T05:46:55.218Z,11.599999
2023-05-19T05:47:55.405Z,11.92
2023-05-19T05:48:55.535Z,11.679999
2023-05-19T05:49:55.666Z,11.599999
2023-05-19T05:50:55.800Z,11.92
2023-05-19T05:52:05.431Z,12
2023-05-19T05:52:56.050Z,12
2023-05-19T05:53:56.203Z,12
2023-05-19T05:54:56.309Z,11.84
2023-05-19T05:55:56.465Z,11.84
2023-05-19T05:56:56.612Z,11.92
2023-05-19T05:57:56.768Z,12
2023-05-19T05:58:56.912Z,11.679999
2023-05-19T05:59:57.069Z,11.92
2023-05-19T06:00:57.239Z,11.92
2023-05-19T06:01:57.337Z,11.679999
2023-05-19T06:02:57.551Z,11.679999
2023-05-19T06:03:57.628Z,11.84
2023-05-19T06:04:57.734Z,11.679999
2023-05-19T06:05:57.931Z,12.08
2023-05-19T06:06:58.027Z,12
2023-05-19T06:07:58.184Z,12
2023-05-19T06:08:58.337Z,12.24
2023-05-19T06:09:58.497Z,12.32
2023-05-19T06:10:58.642Z,12.4
2023-05-19T06:11:58.796Z,12.32
2023-05-19T06:12:58.893Z,11.92
2023-05-19T06:13:59.042Z,11.92
2023-05-19T06:14:59.193Z,12.08
2023-05-19T06:16:01.220Z,12.32
2023-05-19T06:16:59.503Z,12.32
2023-05-19T06:17:59.741Z,12.4
2023-05-19T06:18:59.824Z,12.4
2023-05-19T06:19:59.908Z,12.24
2023-05-19T06:21:00.016Z,12
2023-05-19T06:22:00.175Z,12.32
2023-05-19T06:23:00.266Z,12.719999
2023-05-19T06:24:00.417Z,12.639999
2023-05-19T06:25:00.569Z,12.88
2023-05-19T06:26:00.712Z,12.24
2023-05-19T06:27:00.878Z,12.719999
2023-05-19T06:28:01.037Z,12.88
2023-05-19T06:29:01.170Z,12.88
2023-05-19T06:30:01.323Z,12.719999
2023-05-19T06:31:01.492Z,12.88
2023-05-19T06:32:01.622Z,12.88
2023-05-19T06:33:01.790Z,13.12
2023-05-19T06:34:01.938Z,13.84
2023-05-19T06:35:02.094Z,13.12
2023-05-19T06:36:02.245Z,13.599999
2023-05-19T06:37:02.436Z,13.84
2023-05-19T06:38:02.545Z,13.92
2023-05-19T06:39:02.924Z,14.08
2023-05-19T06:40:02.848Z,13.92
2023-05-19T06:41:02.996Z,14.639999
2023-05-19T06:42:03.148Z,14.32
2023-05-19T06:43:03.293Z,14.4
2023-05-19T06:44:03.450Z,14.24
2023-05-19T06:45:03.608Z,14.719999
2023-05-19T06:46:03.785Z,14.32
2023-05-19T06:47:03.926Z,15.12
2023-05-19T06:48:04.024Z,14.799999
2023-05-19T06:49:04.210Z,14.48
2023-05-19T06:50:04.258Z,14.32
2023-05-19T06:51:04.415Z,14.48
2023-05-19T06:52:04.558Z,14.719999
2023-05-19T06:53:04.717Z,14.719999
2023-05-19T06:54:04.865Z,14.639999
2023-05-19T06:55:05.026Z,14.799999
2023-05-19T06:56:05.120Z,15.04
2023-05-19T06:57:05.268Z,14.719999
2023-05-19T06:58:05.421Z,14.639999
2023-05-19T06:59:05.569Z,14.719999
2023-05-19T07:00:06.243Z,14.799999
2023-05-19T07:01:05.881Z,14.799999
2023-05-19T07:02:06.623Z,15.04
2023-05-19T07:03:06.330Z,15.12
2023-05-19T07:04:06.383Z,15.52
2023-05-19T07:05:06.478Z,16
2023-05-19T07:06:08.241Z,15.599999
2023-05-19T07:07:06.792Z,15.12
2023-05-19T07:08:06.939Z,15.599999
2023-05-19T07:09:07.057Z,15.599999
2023-05-19T07:10:07.152Z,15.44
2023-05-19T07:11:07.294Z,15.52
2023-05-19T07:12:07.438Z,15.52
2023-05-19T07:13:07.590Z,15.28
2023-05-19T07:14:07.712Z,14.719999
2023-05-19T07:15:07.846Z,14.4
2023-05-19T07:16:08.017Z,15.04
2023-05-19T07:17:08.107Z,15.92
2023-05-19T07:18:08.270Z,15.599999
2023-05-19T07:19:08.437Z,16.32
2023-05-19T07:20:08.548Z,16.88
2023-05-19T07:21:08.724Z,17.04
2023-05-19T07:22:08.838Z,17.68
2023-05-19T07:23:08.960Z,18
2023-05-19T07:24:09.115Z,19.76
2023-05-19T07:25:09.264Z,18.8
2023-05-19T07:26:09.424Z,18.24
2023-05-19T07:27:09.564Z,19.04
2023-05-19T07:28:09.722Z,20.72
2023-05-19T07:29:09.827Z,21.2
2023-05-19T07:30:09.933Z,21.92
2023-05-19T07:31:10.085Z,21.44
2023-05-19T07:32:10.249Z,21.2
2023-05-19T07:33:10.379Z,21.44
2023-05-19T07:34:10.475Z,21.04
2023-05-19T07:35:10.628Z,18.48
2023-05-19T07:36:10.783Z,18.4
2023-05-19T07:37:10.885Z,18.88
2023-05-19T07:38:11.037Z,19.04
2023-05-19T07:39:11.276Z,18.4
2023-05-19T07:40:11.333Z,18.8
2023-05-19T07:41:11.499Z,19.28
2023-05-19T07:42:11.647Z,18.64
2023-05-19T07:43:11.797Z,19.04
2023-05-19T07:44:11.899Z,18.8
2023-05-19T07:45:12.050Z,19.04
2023-05-19T07:46:12.231Z,18.48
2023-05-19T07:47:12.354Z,17.76
2023-05-19T07:48:12.552Z,17.44
2023-05-19T07:49:12.652Z,17.92
2023-05-19T07:50:12.803Z,18.64
2023-05-19T07:51:12.959Z,19.52
2023-05-19T07:52:13.109Z,20
2023-05-19T07:53:13.253Z,18.8
2023-05-19T07:54:13.419Z,19.44
2023-05-19T07:55:13.530Z,19.68
2023-05-19T07:56:13.675Z,20.48
2023-05-19T07:57:13.810Z,21.12
2023-05-19T07:58:13.970Z,19.76
2023-05-19T07:59:14.066Z,19.04
2023-05-19T08:00:14.215Z,18.4
2023-05-19T08:01:14.351Z,17.28
2023-05-19T08:02:14.476Z,17.6
2023-05-19T08:03:14.751Z,19.04
2023-05-19T08:04:14.778Z,18.64
2023-05-19T08:05:14.824Z,19.92
2023-05-19T08:06:14.977Z,19.12
2023-05-19T08:07:15.127Z,18.32
2023-05-19T08:08:15.277Z,18.08
2023-05-19T08:09:15.431Z,17.76
2023-05-19T08:10:15.535Z,19.12
2023-05-19T08:11:15.684Z,20.24
2023-05-19T08:12:15.844Z,20
2023-05-19T08:13:16.005Z,21.2
2023-05-19T08:14:16.150Z,21.84
2023-05-19T08:15:16.294Z,21.04
2023-05-19T08:16:16.487Z,19.04
2023-05-19T08:17:16.575Z,19.12
2023-05-19T08:18:16.700Z,18.72
2023-05-19T08:19:16.862Z,18.88
2023-05-19T08:20:16.962Z,19.92
2023-05-19T08:21:17.103Z,19.6
2023-05-19T08:22:17.263Z,20.8
2023-05-19T08:23:17.411Z,21.28
2023-05-19T08:24:17.560Z,21.52
2023-05-19T08:25:17.714Z,21.44
2023-05-19T08:26:17.878Z,21.84
2023-05-19T08:27:18.020Z,22.08
2023-05-19T08:28:18.165Z,22.88
2023-05-19T08:29:18.317Z,22.24
2023-05-19T08:30:18.488Z,22.32
2023-05-19T08:31:18.673Z,22.48
2023-05-19T08:32:18.779Z,22.64
2023-05-19T08:33:18.931Z,22.48
2023-05-19T08:34:19.087Z,23.44
2023-05-19T08:35:19.237Z,21.6
2023-05-19T08:36:19.380Z,19.68
2023-05-19T08:37:19.531Z,21.04
2023-05-19T08:38:19.684Z,21.04
2023-05-19T08:39:19.843Z,21.92
2023-05-19T08:40:19.985Z,21.68
2023-05-19T08:41:20.150Z,20.48
2023-05-19T08:42:20.303Z,20.72
2023-05-19T08:43:20.452Z,19.92
2023-05-19T08:44:20.593Z,19.04
2023-05-19T08:45:20.746Z,18.72
2023-05-19T08:46:20.924Z,18
2023-05-19T08:47:21.054Z,17.68
2023-05-19T08:48:21.202Z,17.92
2023-05-19T08:49:21.873Z,19.28
2023-05-19T08:50:21.412Z,19.52
2023-05-19T08:51:21.505Z,17.68
2023-05-19T08:52:21.663Z,18
2023-05-19T08:53:32.297Z,18.4
2023-05-19T08:54:21.959Z,17.92
2023-05-19T08:55:22.068Z,19.44
2023-05-19T08:56:22.217Z,20.4
2023-05-19T08:57:22.365Z,20.8
2023-05-19T08:58:22.516Z,21.12
2023-05-19T08:59:22.677Z,20.88
2023-05-19T09:00:22.869Z,21.6
2023-05-19T09:01:23.018Z,21.92
2023-05-19T09:02:23.152Z,21.44
2023-05-19T09:03:23.829Z,21.84
2023-05-19T09:04:23.429Z,20.4
2023-05-19T09:05:24.129Z,20.88
2023-05-19T09:06:24.249Z,22.8
2023-05-19T09:07:23.785Z,20.72
2023-05-19T09:08:23.895Z,21.84
2023-05-19T09:09:24.033Z,23.28
2023-05-19T09:10:24.182Z,23.12
2023-05-19T09:11:24.345Z,23.2
2023-05-19T09:12:24.506Z,22.64
2023-05-19T09:13:24.641Z,22.88
2023-05-19T09:14:24.807Z,23.52
2023-05-19T09:15:24.942Z,21.92
2023-05-19T09:16:25.954Z,21.92
2023-05-19T09:17:25.285Z,21.44
2023-05-19T09:18:25.355Z,20.72
2023-05-19T09:19:25.585Z,21.28
2023-05-19T09:20:25.660Z,20
2023-05-19T09:21:25.817Z,19.12
2023-05-19T09:22:25.965Z,19.12
2023-05-19T09:23:26.110Z,20.72
2023-05-19T09:24:26.294Z,20.8
2023-05-19T09:25:26.408Z,19.92
2023-05-19T09:26:26.512Z,20.4
2023-05-19T09:27:26.660Z,21.2
2023-05-19T09:28:26.844Z,20
2023-05-19T09:29:26.982Z,21.6
2023-05-19T09:30:27.127Z,21.44
2023-05-19T09:31:27.271Z,20.8
2023-05-19T09:32:27.598Z,19.44
2023-05-19T09:33:27.522Z,19.6
2023-05-19T09:34:27.662Z,19.44
2023-05-19T09:35:27.776Z,20.64
2023-05-19T09:36:27.926Z,19.92
2023-05-19T09:37:28.083Z,20.24
2023-05-19T09:38:28.237Z,19.12
2023-05-19T09:39:28.350Z,19.68
2023-05-19T09:40:28.489Z,20
2023-05-19T09:41:28.643Z,21.28
2023-05-19T09:42:28.845Z,21.12
2023-05-19T09:43:28.942Z,21.68
2023-05-19T09:44:29.093Z,21.6
2023-05-19T09:45:29.248Z,20.4
2023-05-19T09:46:29.446Z,21.04
2023-05-19T09:47:29.569Z,22
2023-05-19T09:48:29.646Z,19.92
2023-05-19T09:49:29.800Z,19.04
2023-05-19T09:50:29.902Z,20
2023-05-19T09:51:30.014Z,19.12
2023-05-19T09:52:30.154Z,18.8
2023-05-19T09:53:30.316Z,18.8
2023-05-19T09:54:30.460Z,20.08
2023-05-19T09:55:30.993Z,19.92
2023-05-19T09:56:30.757Z,20.08
2023-05-19T09:57:30.867Z,20.48
2023-05-19T09:58:31.016Z,19.68
2023-05-19T09:59:33.271Z,19.2
2023-05-19T10:00:31.452Z,20.48
2023-05-19T10:01:31.447Z,21.2
2023-05-19T10:02:31.527Z,21.92
2023-05-19T10:03:31.680Z,21.6
2023-05-19T10:04:31.906Z,22
2023-05-19T10:05:32.107Z,22.8
2023-05-19T10:06:32.131Z,22.8
2023-05-19T10:07:32.279Z,20.32
2023-05-19T10:08:32.432Z,22.4
2023-05-19T10:09:32.585Z,22.88
2023-05-19T10:10:33.115Z,23.44
2023-05-19T10:11:32.892Z,23.52
2023-05-19T10:12:33.366Z,21.2
2023-05-19T10:13:33.504Z,22
2023-05-19T10:14:33.248Z,22.72
2023-05-19T10:15:38.499Z,22.24
2023-05-19T10:16:33.521Z,23.04
2023-05-19T10:17:33.684Z,24.24
2023-05-19T10:18:33.754Z,23.92
2023-05-19T10:19:33.964Z,24.4
2023-05-19T10:20:34.218Z,24.24
2023-05-19T10:21:34.204Z,24.24
2023-05-19T10:22:34.354Z,24.88
2023-05-19T10:23:34.459Z,24.4
2023-05-19T10:24:34.609Z,24.48
2023-05-19T10:25:34.890Z,24.32
2023-05-19T10:26:34.908Z,24.08
2023-05-19T10:27:35.061Z,24.32
2023-05-19T10:28:35.214Z,24.4
2023-05-19T10:29:35.381Z,23.92
2023-05-19T10:30:35.518Z,24.8
2023-05-19T10:31:35.692Z,24.48
2023-05-19T10:32:35.823Z,24.32
2023-05-19T10:33:35.921Z,24.48
2023-05-19T10:34:36.075Z,24.24
2023-05-19T10:35:36.367Z,24.48
2023-05-19T10:36:36.380Z,26.08
2023-05-19T10:37:36.560Z,26
2023-05-19T10:38:36.684Z,26.08
2023-05-19T10:39:36.793Z,23.92
2023-05-19T10:40:36.937Z,22.8
2023-05-19T10:41:37.084Z,24.24
2023-05-19T10:42:37.238Z,24.24
2023-05-19T10:43:37.385Z,23.84
2023-05-19T10:44:37.542Z,23.2
2023-05-19T10:45:37.696Z,23.44
2023-05-19T10:46:37.857Z,23.84
2023-05-19T10:47:37.929Z,24.88
2023-05-19T10:48:38.056Z,23.92
2023-05-19T10:49:38.224Z,22.64
2023-05-19T10:50:38.352Z,23.44
2023-05-19T10:51:38.463Z,23.52
2023-05-19T10:52:38.602Z,24.4
2023-05-19T10:53:38.754Z,25.04
2023-05-19T10:54:38.914Z,21.6
2023-05-19T10:55:39.060Z,21.68
2023-05-19T10:56:39.212Z,20.8
2023-05-19T10:57:39.380Z,19.76
2023-05-19T10:58:39.475Z,20
2023-05-19T10:59:39.641Z,21.44
2023-05-19T11:00:39.725Z,21.52
2023-05-19T11:01:39.898Z,22.8
2023-05-19T11:02:40.113Z,23.84
2023-05-19T11:03:42.673Z,22.4
2023-05-19T11:04:40.324Z,21.92
2023-05-19T11:05:40.492Z,23.04
2023-05-19T11:06:40.635Z,24.48
2023-05-19T11:07:40.783Z,24.88
2023-05-19T11:08:40.933Z,24.32
2023-05-19T11:09:41.180Z,24.08
2023-05-19T11:10:41.249Z,22.88
2023-05-19T11:11:41.393Z,21.92
2023-05-19T11:12:41.540Z,22.4
2023-05-19T11:13:41.642Z,22.88
2023-05-19T11:14:41.749Z,23.6
2023-05-19T11:15:41.849Z,23.04
2023-05-19T11:16:42.035Z,23.52
2023-05-19T11:17:42.171Z,23.6
2023-05-19T11:18:42.351Z,23.28
2023-05-19T11:19:42.462Z,22.4
2023-05-19T11:20:42.637Z,23.68
2023-05-19T11:21:42.717Z,22.88
2023-05-19T11:22:42.863Z,23.44
2023-05-19T11:23:43.032Z,24
2023-05-19T11:24:43.117Z,22.8
2023-05-19T11:25:43.272Z,23.04
2023-05-19T11:26:43.433Z,23.6
2023-05-19T11:27:43.568Z,25.04
2023-05-19T11:28:43.720Z,23.84
2023-05-19T11:29:43.875Z,24.8
2023-05-19T11:30:44.021Z,25.68
2023-05-19T11:31:44.220Z,23.68
2023-05-19T11:32:44.389Z,22.48
2023-05-19T11:33:44.428Z,22.24
2023-05-19T11:34:44.592Z,22.08
2023-05-19T11:35:44.751Z,21.84
2023-05-19T11:36:44.892Z,21.44
2023-05-19T11:37:45.036Z,21.52
2023-05-19T11:38:45.196Z,21.2
2023-05-19T11:39:45.336Z,20.72
2023-05-19T11:40:45.486Z,21.52
2023-05-19T11:41:45.636Z,21.04
2023-05-19T11:42:45.789Z,21.44
2023-05-19T11:43:45.947Z,21.2
2023-05-19T11:44:46.092Z,21.52
2023-05-19T11:45:46.296Z,21.52
2023-05-19T11:46:46.404Z,21.28
2023-05-19T11:48:01.080Z,21.52
2023-05-19T11:48:46.681Z,21.84
2023-05-19T11:49:46.803Z,21.52
2023-05-19T11:50:46.960Z,21.92
2023-05-19T11:51:47.104Z,22
2023-05-19T11:52:47.213Z,22.64
2023-05-19T11:53:47.356Z,22.64
2023-05-19T11:54:47.517Z,22.24
2023-05-19T11:55:48.035Z,21.44
2023-05-19T11:56:47.812Z,21.6
2023-05-19T11:57:56.114Z,20.64
2023-05-19T11:58:48.064Z,19.92
2023-05-19T11:59:48.295Z,20.08
2023-05-19T12:00:48.369Z,20.08
2023-05-19T12:01:48.518Z,20.24
2023-05-19T12:02:48.717Z,20
2023-05-19T12:03:48.925Z,20.72
2023-05-19T12:04:49.022Z,20.8
2023-05-19T12:05:49.601Z,20.48
2023-05-19T12:06:49.276Z,21.04
2023-05-19T12:07:49.429Z,21.2
2023-05-19T12:08:49.575Z,21.84
2023-05-19T12:09:49.686Z,21.6
2023-05-19T12:10:49.841Z,22.08
2023-05-19T12:11:49.986Z,22
2023-05-19T12:12:50.089Z,22
2023-05-19T12:13:50.244Z,22.32
2023-05-19T12:14:50.386Z,22.48
2023-05-19T12:15:50.559Z,23.12
2023-05-19T12:16:50.702Z,23.52
2023-05-19T12:17:50.822Z,23.2
2023-05-19T12:18:50.995Z,22.88
2023-05-19T12:19:51.102Z,23.44
2023-05-19T12:20:51.258Z,23.04
2023-05-19T12:21:51.403Z,21.68
2023-05-19T12:22:51.558Z,22.32
2023-05-19T12:23:51.717Z,23.84
2023-05-19T12:24:51.855Z,24
2023-05-19T12:25:52.011Z,23.04
2023-05-19T12:26:52.163Z,22.8
2023-05-19T12:27:52.265Z,23.12
2023-05-19T12:28:52.418Z,23.6
2023-05-19T12:29:52.612Z,23.52
2023-05-19T12:30:52.673Z,23.6
2023-05-19T12:31:52.889Z,23.12
2023-05-19T12:32:53.006Z,24
2023-05-19T12:33:53.121Z,23.12
2023-05-19T12:34:53.233Z,23.84
2023-05-19T12:35:53.382Z,24
2023-05-19T12:36:53.527Z,22.24
2023-05-19T12:37:53.678Z,21.84
2023-05-19T12:38:53.839Z,22.4
2023-05-19T12:39:53.986Z,22.8
2023-05-19T12:40:54.153Z,22.8
2023-05-19T12:41:54.238Z,22.48
2023-05-19T12:42:54.399Z,23.28
2023-05-19T12:43:54.543Z,23.28
2023-05-19T12:44:54.711Z,23.84
2023-05-19T12:45:54.872Z,21.92
2023-05-19T12:46:54.947Z,23.52
2023-05-19T12:47:55.105Z,22.48
2023-05-19T12:48:55.248Z,22.8
2023-05-19T12:49:55.402Z,23.44
2023-05-19T12:50:55.587Z,23.44
2023-05-19T12:51:55.705Z,23.44
2023-05-19T12:52:55.854Z,23.6
2023-05-19T12:53:55.992Z,24.24
2023-05-19T12:54:56.183Z,24.24
2023-05-19T12:55:56.274Z,23.84
2023-05-19T12:56:56.412Z,25.12
2023-05-19T12:57:56.548Z,24.8
2023-05-19T12:58:56.663Z,24.48
2023-05-19T12:59:56.844Z,24
2023-05-19T13:00:57.034Z,21.68
2023-05-19T13:01:57.143Z,20.88
2023-05-19T13:02:57.336Z,20.72
2023-05-19T13:03:57.440Z,20.8
2023-05-19T13:04:57.527Z,21.84
2023-05-19T13:05:57.684Z,22.08
2023-05-19T13:06:57.845Z,22.24
2023-05-19T13:07:57.984Z,21.6
2023-05-19T13:08:58.132Z,22